sensor_id;sensor_type;location;lat;lon;timestamp;P1;durP1;ratioP1;P2;durP2;ratioP2
10299;SDS011;5195;48.562;9.192;2023-03-17T00:00:36;5.47;;;5.10;;
10299;SDS011;5195;48.562;9.192;2023-03-17T00:03:02;5.18;;;4.80;;
10299;SDS011;5195;48.562;9.192;2023-03-17T00:05:29;5.50;;;5.10;;
10299;SDS011;5195;48.562;9.192;2023-03-17T00:07:57;5.23;;;4.87;;
10299;SDS011;5195;48.562;9.192;2023-03-17T00:10:23;5.90;;;5.50;;
10299;SDS011;5195;48.562;9.192;2023-03-17T00:12:48;5.67;;;5.37;;
10299;SDS011;5195;48.562;9.192;2023-03-17T00:15:16;5.95;;;5.55;;
10299;SDS011;5195;48.562;9.192;2023-03-17T00:17:42;5.75;;;5.35;;
10299;SDS011;5195;48.562;9.192;2023-03-17T00:20:10;5.95;;;5.55;;
10299;SDS011;5195;48.562;9.192;2023-03-17T00:22:33;5.90;;;5.50;;
10299;SDS011;5195;48.562;9.192;2023-03-17T00:24:58;6.07;;;5.68;;
10299;SDS011;5195;48.562;9.192;2023-03-17T00:27:25;5.55;;;5.15;;
10299;SDS011;5195;48.562;9.192;2023-03-17T00:29:50;4.87;;;4.47;;
10299;SDS011;5195;48.562;9.192;2023-03-17T00:32:16;5.40;;;5.00;;
10299;SDS011;5195;48.562;9.192;2023-03-17T00:34:42;5.00;;;4.70;;
10299;SDS011;5195;48.562;9.192;2023-03-17T00:37:09;5.97;;;5.50;;
10299;SDS011;5195;48.562;9.192;2023-03-17T00:39:33;5.83;;;5.50;;
10299;SDS011;5195;48.562;9.192;2023-03-17T00:41:58;4.93;;;4.68;;
10299;SDS011;5195;48.562;9.192;2023-03-17T00:44:24;4.95;;;4.60;;
10299;SDS011;5195;48.562;9.192;2023-03-17T00:46:49;4.80;;;4.50;;
10299;SDS011;5195;48.562;9.192;2023-03-17T00:49:16;4.97;;;4.67;;
10299;SDS011;5195;48.562;9.192;2023-03-17T00:51:40;6.00;;;5.50;;
10299;SDS011;5195;48.562;9.192;2023-03-17T00:54:08;5.80;;;5.40;;
10299;SDS011;5195;48.562;9.192;2023-03-17T00:56:33;5.80;;;5.33;;
10299;SDS011;5195;48.562;9.192;2023-03-17T00:58:59;5.07;;;4.57;;
10299;SDS011;5195;48.562;9.192;2023-03-17T01:01:27;5.13;;;4.80;;
10299;SDS011;5195;48.562;9.192;2023-03-17T01:03:52;5.10;;;4.70;;
10299;SDS011;5195;48.562;9.192;2023-03-17T01:06:18;5.10;;;4.80;;
10299;SDS011;5195;48.562;9.192;2023-03-17T01:08:43;4.57;;;4.27;;
10299;SDS011;5195;48.562;9.192;2023-03-17T01:11:13;4.97;;;4.68;;
10299;SDS011;5195;48.562;9.192;2023-03-17T01:13:38;5.60;;;5.17;;
10299;SDS011;5195;48.562;9.192;2023-03-17T01:16:04;4.82;;;4.43;;
10299;SDS011;5195;48.562;9.192;2023-03-17T01:18:29;5.47;;;5.07;;
10299;SDS011;5195;48.562;9.192;2023-03-17T01:20:55;5.30;;;4.90;;
10299;SDS011;5195;48.562;9.192;2023-03-17T01:23:20;4.63;;;4.33;;
10299;SDS011;5195;48.562;9.192;2023-03-17T01:25:46;4.60;;;4.30;;
10299;SDS011;5195;48.562;9.192;2023-03-17T01:28:12;4.93;;;4.60;;
10299;SDS011;5195;48.562;9.192;2023-03-17T01:30:38;5.03;;;4.63;;
10299;SDS011;5195;48.562;9.192;2023-03-17T01:33:03;4.30;;;4.00;;
10299;SDS011;5195;48.562;9.192;2023-03-17T01:35:28;4.95;;;4.55;;
10299;SDS011;5195;48.562;9.192;2023-03-17T01:37:55;4.37;;;4.07;;
10299;SDS011;5195;48.562;9.192;2023-03-17T01:40:22;4.40;;;4.07;;
10299;SDS011;5195;48.562;9.192;2023-03-17T01:42:48;4.80;;;4.40;;
10299;SDS011;5195;48.562;9.192;2023-03-17T01:48:19;3.97;;;3.77;;
10299;SDS011;5195;48.562;9.192;2023-03-17T01:50:44;3.60;;;3.30;;
10299;SDS011;5195;48.562;9.192;2023-03-17T01:53:10;4.60;;;4.30;;
10299;SDS011;5195;48.562;9.192;2023-03-17T01:55:35;5.45;;;5.05;;
10299;SDS011;5195;48.562;9.192;2023-03-17T01:58:02;4.85;;;4.45;;
10299;SDS011;5195;48.562;9.192;2023-03-17T02:00:27;4.67;;;4.20;;
10299;SDS011;5195;48.562;9.192;2023-03-17T02:02:54;4.35;;;4.05;;
10299;SDS011;5195;48.562;9.192;2023-03-17T02:05:19;4.50;;;4.20;;
10299;SDS011;5195;48.562;9.192;2023-03-17T02:07:44;4.87;;;4.40;;
10299;SDS011;5195;48.562;9.192;2023-03-17T02:10:10;4.90;;;4.50;;
10299;SDS011;5195;48.562;9.192;2023-03-17T02:12:35;5.23;;;4.73;;
10299;SDS011;5195;48.562;9.192;2023-03-17T02:15:01;5.20;;;4.80;;
10299;SDS011;5195;48.562;9.192;2023-03-17T02:17:27;5.40;;;5.00;;
10299;SDS011;5195;48.562;9.192;2023-03-17T02:19:55;5.13;;;4.73;;
10299;SDS011;5195;48.562;9.192;2023-03-17T02:22:20;4.75;;;4.45;;
10299;SDS011;5195;48.562;9.192;2023-03-17T02:24:47;4.78;;;4.47;;
10299;SDS011;5195;48.562;9.192;2023-03-17T02:29:41;5.05;;;4.65;;
10299;SDS011;5195;48.562;9.192;2023-03-17T02:32:06;5.17;;;4.80;;
10299;SDS011;5195;48.562;9.192;2023-03-17T02:34:32;5.67;;;4.17;;
10299;SDS011;5195;48.562;9.192;2023-03-17T02:36:58;5.07;;;4.57;;
10299;SDS011;5195;48.562;9.192;2023-03-17T02:39:23;4.83;;;4.53;;
10299;SDS011;5195;48.562;9.192;2023-03-17T02:41:49;4.07;;;3.87;;
10299;SDS011;5195;48.562;9.192;2023-03-17T02:44:14;4.13;;;3.83;;
10299;SDS011;5195;48.562;9.192;2023-03-17T02:46:40;4.40;;;4.10;;
10299;SDS011;5195;48.562;9.192;2023-03-17T02:49:06;4.45;;;4.12;;
10299;SDS011;5195;48.562;9.192;2023-03-17T02:51:31;4.40;;;4.20;;
10299;SDS011;5195;48.562;9.192;2023-03-17T02:53:57;4.73;;;4.37;;
10299;SDS011;5195;48.562;9.192;2023-03-17T02:56:22;4.80;;;4.50;;
10299;SDS011;5195;48.562;9.192;2023-03-17T02:58:48;4.60;;;4.30;;
10299;SDS011;5195;48.562;9.192;2023-03-17T03:01:14;4.70;;;4.40;;
10299;SDS011;5195;48.562;9.192;2023-03-17T03:03:40;5.37;;;5.07;;
10299;SDS011;5195;48.562;9.192;2023-03-17T03:06:05;5.00;;;4.70;;
10299;SDS011;5195;48.562;9.192;2023-03-17T03:08:32;4.20;;;4.00;;
10299;SDS011;5195;48.562;9.192;2023-03-17T03:10:57;4.33;;;4.03;;
10299;SDS011;5195;48.562;9.192;2023-03-17T03:13:22;5.30;;;4.80;;
10299;SDS011;5195;48.562;9.192;2023-03-17T03:15:48;4.57;;;4.22;;
10299;SDS011;5195;48.562;9.192;2023-03-17T03:18:13;4.55;;;4.25;;
10299;SDS011;5195;48.562;9.192;2023-03-17T03:20:40;4.53;;;4.22;;
10299;SDS011;5195;48.562;9.192;2023-03-17T03:23:04;4.32;;;4.03;;
10299;SDS011;5195;48.562;9.192;2023-03-17T03:25:30;5.20;;;4.70;;
10299;SDS011;5195;48.562;9.192;2023-03-17T03:27:56;4.43;;;4.13;;
10299;SDS011;5195;48.562;9.192;2023-03-17T03:30:21;4.30;;;4.10;;
10299;SDS011;5195;48.562;9.192;2023-03-17T03:32:47;5.20;;;4.80;;
10299;SDS011;5195;48.562;9.192;2023-03-17T03:35:12;5.03;;;4.72;;
10299;SDS011;5195;48.562;9.192;2023-03-17T03:37:38;5.07;;;4.67;;
10299;SDS011;5195;48.562;9.192;2023-03-17T03:40:03;5.45;;;3.95;;
10299;SDS011;5195;48.562;9.192;2023-03-17T03:42:29;4.70;;;4.40;;
10299;SDS011;5195;48.562;9.192;2023-03-17T03:44:55;5.30;;;4.90;;
10299;SDS011;5195;48.562;9.192;2023-03-17T03:47:20;4.07;;;3.87;;
10299;SDS011;5195;48.562;9.192;2023-03-17T03:49:46;4.80;;;4.40;;
10299;SDS011;5195;48.562;9.192;2023-03-17T03:52:12;4.15;;;3.95;;
10299;SDS011;5195;48.562;9.192;2023-03-17T03:54:38;5.13;;;4.73;;
10299;SDS011;5195;48.562;9.192;2023-03-17T03:57:03;4.60;;;4.30;;
10299;SDS011;5195;48.562;9.192;2023-03-17T03:59:29;4.50;;;4.20;;
10299;SDS011;5195;48.562;9.192;2023-03-17T04:01:55;5.00;;;4.60;;
10299;SDS011;5195;48.562;9.192;2023-03-17T04:04:21;4.50;;;4.30;;
10299;SDS011;5195;48.562;9.192;2023-03-17T04:06:47;4.45;;;4.07;;
10299;SDS011;5195;48.562;9.192;2023-03-17T04:09:13;4.57;;;4.30;;
10299;SDS011;5195;48.562;9.192;2023-03-17T04:11:39;4.27;;;4.07;;
10299;SDS011;5195;48.562;9.192;2023-03-17T04:14:06;4.23;;;3.93;;
10299;SDS011;5195;48.562;9.192;2023-03-17T04:16:31;4.27;;;3.87;;
10299;SDS011;5195;48.562;9.192;2023-03-17T04:18:57;4.72;;;4.40;;
10299;SDS011;5195;48.562;9.192;2023-03-17T04:21:22;5.20;;;4.80;;
10299;SDS011;5195;48.562;9.192;2023-03-17T04:23:48;4.67;;;4.20;;
10299;SDS011;5195;48.562;9.192;2023-03-17T04:26:13;4.72;;;4.43;;
10299;SDS011;5195;48.562;9.192;2023-03-17T04:28:39;4.83;;;4.53;;
10299;SDS011;5195;48.562;9.192;2023-03-17T04:31:05;4.40;;;4.00;;
10299;SDS011;5195;48.562;9.192;2023-03-17T04:33:30;4.67;;;4.10;;
10299;SDS011;5195;48.562;9.192;2023-03-17T04:35:56;4.57;;;4.28;;
10299;SDS011;5195;48.562;9.192;2023-03-17T04:38:22;4.83;;;4.40;;
10299;SDS011;5195;48.562;9.192;2023-03-17T04:40:48;5.00;;;4.60;;
10299;SDS011;5195;48.562;9.192;2023-03-17T04:43:13;5.30;;;4.80;;
10299;SDS011;5195;48.562;9.192;2023-03-17T04:45:39;4.43;;;4.10;;
10299;SDS011;5195;48.562;9.192;2023-03-17T04:48:05;4.87;;;4.47;;
10299;SDS011;5195;48.562;9.192;2023-03-17T04:50:31;5.00;;;4.60;;
10299;SDS011;5195;48.562;9.192;2023-03-17T04:52:56;4.70;;;4.40;;
10299;SDS011;5195;48.562;9.192;2023-03-17T04:55:22;4.70;;;4.28;;
10299;SDS011;5195;48.562;9.192;2023-03-17T04:57:47;4.30;;;4.07;;
10299;SDS011;5195;48.562;9.192;2023-03-17T05:00:13;5.27;;;4.67;;
10299;SDS011;5195;48.562;9.192;2023-03-17T05:02:39;5.57;;;5.10;;
10299;SDS011;5195;48.562;9.192;2023-03-17T05:05:05;5.23;;;4.87;;
10299;SDS011;5195;48.562;9.192;2023-03-17T05:07:30;5.57;;;5.17;;
10299;SDS011;5195;48.562;9.192;2023-03-17T05:09:56;5.70;;;5.30;;
10299;SDS011;5195;48.562;9.192;2023-03-17T05:12:22;5.22;;;4.82;;
10299;SDS011;5195;48.562;9.192;2023-03-17T05:14:47;5.70;;;5.30;;
10299;SDS011;5195;48.562;9.192;2023-03-17T05:17:13;5.33;;;4.90;;
10299;SDS011;5195;48.562;9.192;2023-03-17T05:19:39;6.00;;;5.53;;
10299;SDS011;5195;48.562;9.192;2023-03-17T05:22:05;5.10;;;4.60;;
10299;SDS011;5195;48.562;9.192;2023-03-17T05:24:32;5.85;;;5.45;;
10299;SDS011;5195;48.562;9.192;2023-03-17T05:26:57;5.40;;;5.07;;
10299;SDS011;5195;48.562;9.192;2023-03-17T05:29:24;4.80;;;4.50;;
10299;SDS011;5195;48.562;9.192;2023-03-17T05:31:51;5.10;;;4.68;;
10299;SDS011;5195;48.562;9.192;2023-03-17T05:34:16;4.47;;;4.07;;
10299;SDS011;5195;48.562;9.192;2023-03-17T05:36:42;4.37;;;4.07;;
10299;SDS011;5195;48.562;9.192;2023-03-17T05:39:07;4.07;;;3.77;;
10299;SDS011;5195;48.562;9.192;2023-03-17T05:41:34;4.37;;;4.07;;
10299;SDS011;5195;48.562;9.192;2023-03-17T05:44:00;4.57;;;4.28;;
10299;SDS011;5195;48.562;9.192;2023-03-17T05:46:25;4.60;;;4.30;;
10299;SDS011;5195;48.562;9.192;2023-03-17T05:48:51;4.20;;;3.90;;
10299;SDS011;5195;48.562;9.192;2023-03-17T05:51:16;4.20;;;3.90;;
10299;SDS011;5195;48.562;9.192;2023-03-17T05:53:43;4.13;;;3.77;;
10299;SDS011;5195;48.562;9.192;2023-03-17T05:56:08;3.97;;;3.67;;
10299;SDS011;5195;48.562;9.192;2023-03-17T05:58:34;3.87;;;3.58;;
10299;SDS011;5195;48.562;9.192;2023-03-17T06:01:00;3.83;;;3.53;;
10299;SDS011;5195;48.562;9.192;2023-03-17T06:03:27;3.73;;;3.43;;
10299;SDS011;5195;48.562;9.192;2023-03-17T06:05:52;3.97;;;3.67;;
10299;SDS011;5195;48.562;9.192;2023-03-17T06:08:18;4.50;;;4.20;;
10299;SDS011;5195;48.562;9.192;2023-03-17T06:10:44;4.30;;;4.00;;
10299;SDS011;5195;48.562;9.192;2023-03-17T06:13:09;4.13;;;3.83;;
10299;SDS011;5195;48.562;9.192;2023-03-17T06:15:35;4.70;;;4.20;;
10299;SDS011;5195;48.562;9.192;2023-03-17T06:18:00;3.83;;;3.50;;
10299;SDS011;5195;48.562;9.192;2023-03-17T06:20:27;4.27;;;3.93;;
10299;SDS011;5195;48.562;9.192;2023-03-17T06:22:52;3.20;;;3.00;;
10299;SDS011;5195;48.562;9.192;2023-03-17T06:25:18;4.00;;;3.70;;
10299;SDS011;5195;48.562;9.192;2023-03-17T06:27:45;5.07;;;4.55;;
10299;SDS011;5195;48.562;9.192;2023-03-17T06:30:10;4.50;;;4.10;;
10299;SDS011;5195;48.562;9.192;2023-03-17T06:32:36;4.80;;;4.50;;
10299;SDS011;5195;48.562;9.192;2023-03-17T06:35:02;4.87;;;4.50;;
10299;SDS011;5195;48.562;9.192;2023-03-17T06:37:27;4.72;;;4.32;;
10299;SDS011;5195;48.562;9.192;2023-03-17T06:39:53;4.63;;;4.33;;
10299;SDS011;5195;48.562;9.192;2023-03-17T06:42:19;4.80;;;4.50;;
10299;SDS011;5195;48.562;9.192;2023-03-17T06:44:44;4.53;;;4.22;;
10299;SDS011;5195;48.562;9.192;2023-03-17T06:47:11;3.95;;;3.75;;
10299;SDS011;5195;48.562;9.192;2023-03-17T06:49:38;4.80;;;4.40;;
10299;SDS011;5195;48.562;9.192;2023-03-17T06:52:04;4.10;;;3.90;;
10299;SDS011;5195;48.562;9.192;2023-03-17T06:54:30;4.87;;;4.47;;
10299;SDS011;5195;48.562;9.192;2023-03-17T06:56:56;4.27;;;3.97;;
10299;SDS011;5195;48.562;9.192;2023-03-17T06:59:26;4.87;;;4.40;;
10299;SDS011;5195;48.562;9.192;2023-03-17T07:01:51;4.83;;;3.80;;
10299;SDS011;5195;48.562;9.192;2023-03-17T07:04:17;4.20;;;3.97;;
10299;SDS011;5195;48.562;9.192;2023-03-17T07:06:42;3.70;;;3.50;;
10299;SDS011;5195;48.562;9.192;2023-03-17T07:09:08;4.93;;;4.53;;
10299;SDS011;5195;48.562;9.192;2023-03-17T07:11:34;4.40;;;4.10;;
10299;SDS011;5195;48.562;9.192;2023-03-17T07:14:00;4.10;;;3.90;;
10299;SDS011;5195;48.562;9.192;2023-03-17T07:16:26;4.30;;;4.00;;
10299;SDS011;5195;48.562;9.192;2023-03-17T07:18:51;4.60;;;4.30;;
10299;SDS011;5195;48.562;9.192;2023-03-17T07:21:17;4.30;;;4.00;;
10299;SDS011;5195;48.562;9.192;2023-03-17T07:23:43;5.10;;;4.70;;
10299;SDS011;5195;48.562;9.192;2023-03-17T07:26:08;4.82;;;4.43;;
10299;SDS011;5195;48.562;9.192;2023-03-17T07:28:34;4.73;;;4.37;;
10299;SDS011;5195;48.562;9.192;2023-03-17T07:30:59;5.70;;;4.53;;
10299;SDS011;5195;48.562;9.192;2023-03-17T07:33:25;4.82;;;4.43;;
10299;SDS011;5195;48.562;9.192;2023-03-17T07:35:51;5.30;;;4.87;;
10299;SDS011;5195;48.562;9.192;2023-03-17T07:38:17;5.40;;;4.90;;
10299;SDS011;5195;48.562;9.192;2023-03-17T07:40:44;4.25;;;4.05;;
10299;SDS011;5195;48.562;9.192;2023-03-17T07:43:09;7.27;;;4.50;;
10299;SDS011;5195;48.562;9.192;2023-03-17T07:45:35;4.93;;;4.63;;
10299;SDS011;5195;48.562;9.192;2023-03-17T07:48:04;5.23;;;4.80;;
10299;SDS011;5195;48.562;9.192;2023-03-17T07:50:30;5.40;;;5.00;;
10299;SDS011;5195;48.562;9.192;2023-03-17T07:52:55;5.20;;;4.80;;
10299;SDS011;5195;48.562;9.192;2023-03-17T07:55:20;4.60;;;4.20;;
10299;SDS011;5195;48.562;9.192;2023-03-17T07:57:46;4.53;;;4.10;;
10299;SDS011;5195;48.562;9.192;2023-03-17T08:00:12;4.77;;;4.43;;
10299;SDS011;5195;48.562;9.192;2023-03-17T08:02:38;5.10;;;4.70;;
10299;SDS011;5195;48.562;9.192;2023-03-17T08:05:03;4.57;;;4.17;;
10299;SDS011;5195;48.562;9.192;2023-03-17T08:07:30;4.60;;;4.30;;
10299;SDS011;5195;48.562;9.192;2023-03-17T08:09:57;4.47;;;4.17;;
10299;SDS011;5195;48.562;9.192;2023-03-17T08:12:23;4.80;;;4.40;;
10299;SDS011;5195;48.562;9.192;2023-03-17T08:14:52;4.53;;;3.83;;
10299;SDS011;5195;48.562;9.192;2023-03-17T08:17:17;5.63;;;3.93;;
10299;SDS011;5195;48.562;9.192;2023-03-17T08:19:43;4.05;;;3.65;;
10299;SDS011;5195;48.562;9.192;2023-03-17T08:22:09;4.53;;;4.22;;
10299;SDS011;5195;48.562;9.192;2023-03-17T08:24:35;4.47;;;4.17;;
10299;SDS011;5195;48.562;9.192;2023-03-17T08:27:00;4.10;;;3.80;;
10299;SDS011;5195;48.562;9.192;2023-03-17T08:29:26;3.90;;;3.58;;
10299;SDS011;5195;48.562;9.192;2023-03-17T08:31:51;3.92;;;3.60;;
10299;SDS011;5195;48.562;9.192;2023-03-17T08:34:17;3.85;;;3.55;;
10299;SDS011;5195;48.562;9.192;2023-03-17T08:36:43;5.10;;;3.90;;
10299;SDS011;5195;48.562;9.192;2023-03-17T08:39:08;4.43;;;4.10;;
10299;SDS011;5195;48.562;9.192;2023-03-17T08:41:34;4.13;;;3.83;;
10299;SDS011;5195;48.562;9.192;2023-03-17T08:43:59;4.53;;;4.13;;
10299;SDS011;5195;48.562;9.192;2023-03-17T08:46:26;6.87;;;3.80;;
10299;SDS011;5195;48.562;9.192;2023-03-17T08:48:51;3.80;;;3.50;;
10299;SDS011;5195;48.562;9.192;2023-03-17T08:51:16;4.35;;;4.00;;
10299;SDS011;5195;48.562;9.192;2023-03-17T08:53:41;4.47;;;3.72;;
10299;SDS011;5195;48.562;9.192;2023-03-17T08:56:08;4.40;;;4.10;;
10299;SDS011;5195;48.562;9.192;2023-03-17T08:58:34;3.57;;;3.37;;
10299;SDS011;5195;48.562;9.192;2023-03-17T09:00:59;4.00;;;3.70;;
10299;SDS011;5195;48.562;9.192;2023-03-17T09:03:25;4.10;;;3.70;;
10299;SDS011;5195;48.562;9.192;2023-03-17T09:05:50;4.93;;;4.30;;
10299;SDS011;5195;48.562;9.192;2023-03-17T09:08:16;3.90;;;3.60;;
10299;SDS011;5195;48.562;9.192;2023-03-17T09:10:43;3.93;;;3.27;;
10299;SDS011;5195;48.562;9.192;2023-03-17T09:13:08;3.62;;;3.42;;
10299;SDS011;5195;48.562;9.192;2023-03-17T09:15:34;5.63;;;3.40;;
10299;SDS011;5195;48.562;9.192;2023-03-17T09:17:59;3.70;;;3.50;;
10299;SDS011;5195;48.562;9.192;2023-03-17T09:20:25;4.73;;;4.10;;
10299;SDS011;5195;48.562;9.192;2023-03-17T09:22:51;5.80;;;3.40;;
10299;SDS011;5195;48.562;9.192;2023-03-17T09:25:16;3.63;;;3.43;;
10299;SDS011;5195;48.562;9.192;2023-03-17T09:27:42;3.30;;;3.10;;
10299;SDS011;5195;48.562;9.192;2023-03-17T09:30:07;3.27;;;2.80;;
10299;SDS011;5195;48.562;9.192;2023-03-17T09:32:33;3.57;;;3.20;;
10299;SDS011;5195;48.562;9.192;2023-03-17T09:34:59;3.70;;;3.37;;
10299;SDS011;5195;48.562;9.192;2023-03-17T09:37:24;3.92;;;3.55;;
10299;SDS011;5195;48.562;9.192;2023-03-17T09:39:50;5.60;;;3.60;;
10299;SDS011;5195;48.562;9.192;2023-03-17T09:49:57;5.55;;;3.78;;
10299;SDS011;5195;48.562;9.192;2023-03-17T09:52:26;4.07;;;3.10;;
10299;SDS011;5195;48.562;9.192;2023-03-17T09:54:49;3.50;;;3.20;;
10299;SDS011;5195;48.562;9.192;2023-03-17T09:57:15;3.50;;;3.20;;
10299;SDS011;5195;48.562;9.192;2023-03-17T09:59:44;4.33;;;3.10;;
10299;SDS011;5195;48.562;9.192;2023-03-17T10:02:24;3.70;;;3.07;;
10299;SDS011;5195;48.562;9.192;2023-03-17T10:04:48;3.60;;;3.00;;
10299;SDS011;5195;48.562;9.192;2023-03-17T10:07:15;3.78;;;3.47;;
10299;SDS011;5195;48.562;9.192;2023-03-17T10:09:43;6.40;;;3.43;;
10299;SDS011;5195;48.562;9.192;2023-03-17T10:12:22;3.20;;;3.00;;
10299;SDS011;5195;48.562;9.192;2023-03-17T10:17:21;3.40;;;3.20;;
10299;SDS011;5195;48.562;9.192;2023-03-17T10:19:53;6.03;;;3.20;;
10299;SDS011;5195;48.562;9.192;2023-03-17T10:22:22;5.60;;;3.60;;
10299;SDS011;5195;48.562;9.192;2023-03-17T10:24:49;3.40;;;3.10;;
10299;SDS011;5195;48.562;9.192;2023-03-17T10:27:13;3.60;;;3.23;;
10299;SDS011;5195;48.562;9.192;2023-03-17T10:29:38;4.50;;;3.40;;
10299;SDS011;5195;48.562;9.192;2023-03-17T10:32:04;3.87;;;3.00;;
10299;SDS011;5195;48.562;9.192;2023-03-17T10:34:30;5.47;;;2.93;;
10299;SDS011;5195;48.562;9.192;2023-03-17T10:36:59;3.80;;;3.22;;
10299;SDS011;5195;48.562;9.192;2023-03-17T10:39:24;3.13;;;2.90;;
10299;SDS011;5195;48.562;9.192;2023-03-17T10:41:57;3.47;;;2.80;;
10299;SDS011;5195;48.562;9.192;2023-03-17T10:49:55;3.60;;;3.20;;
10299;SDS011;5195;48.562;9.192;2023-03-17T10:52:24;3.12;;;2.92;;
10299;SDS011;5195;48.562;9.192;2023-03-17T10:54:47;4.72;;;3.10;;
10299;SDS011;5195;48.562;9.192;2023-03-17T10:57:13;3.83;;;3.07;;
10299;SDS011;5195;48.562;9.192;2023-03-17T10:59:42;3.07;;;2.87;;
10299;SDS011;5195;48.562;9.192;2023-03-17T11:04:47;3.65;;;2.87;;
10299;SDS011;5195;48.562;9.192;2023-03-17T11:07:21;4.20;;;3.20;;
10299;SDS011;5195;48.562;9.192;2023-03-17T11:09:49;3.43;;;3.13;;
10299;SDS011;5195;48.562;9.192;2023-03-17T11:12:25;4.40;;;2.97;;
10299;SDS011;5195;48.562;9.192;2023-03-17T11:15:03;3.30;;;3.00;;
10299;SDS011;5195;48.562;9.192;2023-03-17T11:20:23;3.33;;;2.90;;
10299;SDS011;5195;48.562;9.192;2023-03-17T11:22:48;5.32;;;3.05;;
10299;SDS011;5195;48.562;9.192;2023-03-17T11:25:17;4.60;;;3.10;;
10299;SDS011;5195;48.562;9.192;2023-03-17T11:35:33;2.78;;;2.55;;
10299;SDS011;5195;48.562;9.192;2023-03-17T11:49:11;2.43;;;2.23;;
10299;SDS011;5195;48.562;9.192;2023-03-17T11:57:15;2.40;;;2.20;;
10299;SDS011;5195;48.562;9.192;2023-03-17T11:59:50;4.87;;;2.23;;
10299;SDS011;5195;48.562;9.192;2023-03-17T12:02:27;2.10;;;2.00;;
10299;SDS011;5195;48.562;9.192;2023-03-17T12:07:24;2.50;;;2.30;;
10299;SDS011;5195;48.562;9.192;2023-03-17T12:12:49;2.60;;;2.40;;
10299;SDS011;5195;48.562;9.192;2023-03-17T12:15:19;2.80;;;2.60;;
10299;SDS011;5195;48.562;9.192;2023-03-17T12:17:54;2.37;;;2.10;;
10299;SDS011;5195;48.562;9.192;2023-03-17T12:20:25;2.50;;;2.13;;
10299;SDS011;5195;48.562;9.192;2023-03-17T12:22:54;2.30;;;2.10;;
10299;SDS011;5195;48.562;9.192;2023-03-17T12:28:05;2.20;;;2.00;;
10299;SDS011;5195;48.562;9.192;2023-03-17T12:33:23;4.70;;;4.33;;
10299;SDS011;5195;48.562;9.192;2023-03-17T12:35:46;2.53;;;2.30;;
10299;SDS011;5195;48.562;9.192;2023-03-17T12:38:23;2.60;;;2.50;;
10299;SDS011;5195;48.562;9.192;2023-03-17T12:40:54;2.50;;;2.30;;
10299;SDS011;5195;48.562;9.192;2023-03-17T12:43:28;3.90;;;2.50;;
10299;SDS011;5195;48.562;9.192;2023-03-17T12:53:48;3.13;;;2.60;;
10299;SDS011;5195;48.562;9.192;2023-03-17T12:56:19;2.90;;;2.70;;
10299;SDS011;5195;48.562;9.192;2023-03-17T12:58:44;3.10;;;2.80;;
10299;SDS011;5195;48.562;9.192;2023-03-17T13:01:22;2.50;;;2.30;;
10299;SDS011;5195;48.562;9.192;2023-03-17T13:06:53;2.93;;;2.40;;
10299;SDS011;5195;48.562;9.192;2023-03-17T13:11:51;3.87;;;2.23;;
10299;SDS011;5195;48.562;9.192;2023-03-17T13:22:34;4.50;;;3.97;;
10299;SDS011;5195;48.562;9.192;2023-03-17T13:25:10;3.65;;;3.05;;
10299;SDS011;5195;48.562;9.192;2023-03-17T13:29:56;2.30;;;2.00;;
10299;SDS011;5195;48.562;9.192;2023-03-17T13:37:29;2.10;;;2.00;;
10299;SDS011;5195;48.562;9.192;2023-03-17T13:40:13;2.70;;;2.25;;
10299;SDS011;5195;48.562;9.192;2023-03-17T13:45:46;1.80;;;1.50;;
10299;SDS011;5195;48.562;9.192;2023-03-17T13:53:40;2.47;;;1.60;;
10299;SDS011;5195;48.562;9.192;2023-03-17T13:56:08;1.70;;;1.60;;
10299;SDS011;5195;48.562;9.192;2023-03-17T13:58:51;1.90;;;1.80;;
10299;SDS011;5195;48.562;9.192;2023-03-17T14:01:15;2.03;;;1.70;;
10299;SDS011;5195;48.562;9.192;2023-03-17T14:03:45;1.67;;;1.57;;
10299;SDS011;5195;48.562;9.192;2023-03-17T14:06:09;2.00;;;1.80;;
10299;SDS011;5195;48.562;9.192;2023-03-17T14:08:34;2.85;;;1.83;;
10299;SDS011;5195;48.562;9.192;2023-03-17T14:11:00;1.83;;;1.60;;
10299;SDS011;5195;48.562;9.192;2023-03-17T14:16:25;3.53;;;1.80;;
10299;SDS011;5195;48.562;9.192;2023-03-17T14:18:55;3.50;;;3.20;;
10299;SDS011;5195;48.562;9.192;2023-03-17T14:21:23;3.30;;;2.00;;
10299;SDS011;5195;48.562;9.192;2023-03-17T14:23:54;2.60;;;1.70;;
10299;SDS011;5195;48.562;9.192;2023-03-17T14:26:26;1.80;;;1.70;;
10299;SDS011;5195;48.562;9.192;2023-03-17T14:28:51;1.60;;;1.50;;
10299;SDS011;5195;48.562;9.192;2023-03-17T14:31:24;1.80;;;1.70;;
10299;SDS011;5195;48.562;9.192;2023-03-17T14:33:50;1.80;;;1.70;;
10299;SDS011;5195;48.562;9.192;2023-03-17T14:36:16;2.55;;;1.75;;
10299;SDS011;5195;48.562;9.192;2023-03-17T14:38:52;1.50;;;1.47;;
10299;SDS011;5195;48.562;9.192;2023-03-17T14:41:21;2.43;;;2.27;;
10299;SDS011;5195;48.562;9.192;2023-03-17T14:43:47;1.85;;;1.75;;
10299;SDS011;5195;48.562;9.192;2023-03-17T14:46:21;1.73;;;1.63;;
10299;SDS011;5195;48.562;9.192;2023-03-17T14:48:47;1.47;;;1.37;;
10299;SDS011;5195;48.562;9.192;2023-03-17T14:53:50;2.37;;;1.80;;
10299;SDS011;5195;48.562;9.192;2023-03-17T14:56:23;2.20;;;1.67;;
10299;SDS011;5195;48.562;9.192;2023-03-17T14:58:49;1.93;;;1.40;;
10299;SDS011;5195;48.562;9.192;2023-03-17T15:01:15;3.25;;;1.73;;
10299;SDS011;5195;48.562;9.192;2023-03-17T15:03:39;2.23;;;1.70;;
10299;SDS011;5195;48.562;9.192;2023-03-17T15:06:06;1.83;;;1.50;;
10299;SDS011;5195;48.562;9.192;2023-03-17T15:10:57;1.43;;;1.20;;
10299;SDS011;5195;48.562;9.192;2023-03-17T15:13:21;2.03;;;1.80;;
10299;SDS011;5195;48.562;9.192;2023-03-17T15:15:47;1.60;;;1.50;;
10299;SDS011;5195;48.562;9.192;2023-03-17T15:18:13;2.20;;;1.92;;
10299;SDS011;5195;48.562;9.192;2023-03-17T15:20:38;1.83;;;1.50;;
10299;SDS011;5195;48.562;9.192;2023-03-17T15:23:13;2.42;;;1.50;;
10299;SDS011;5195;48.562;9.192;2023-03-17T15:27:56;1.70;;;1.60;;
10299;SDS011;5195;48.562;9.192;2023-03-17T15:30:21;2.05;;;1.60;;
10299;SDS011;5195;48.562;9.192;2023-03-17T15:33:34;4.17;;;1.53;;
10299;SDS011;5195;48.562;9.192;2023-03-17T15:35:15;2.60;;;1.50;;
10299;SDS011;5195;48.562;9.192;2023-03-17T15:37:42;2.03;;;1.40;;
10299;SDS011;5195;48.562;9.192;2023-03-17T15:40:08;1.95;;;1.42;;
10299;SDS011;5195;48.562;9.192;2023-03-17T15:42:35;2.27;;;1.80;;
10299;SDS011;5195;48.562;9.192;2023-03-17T15:44:59;4.70;;;2.50;;
10299;SDS011;5195;48.562;9.192;2023-03-17T15:47:25;2.30;;;2.00;;
10299;SDS011;5195;48.562;9.192;2023-03-17T15:49:50;2.22;;;1.90;;
10299;SDS011;5195;48.562;9.192;2023-03-17T15:52:20;3.17;;;2.83;;
10299;SDS011;5195;48.562;9.192;2023-03-17T15:54:48;2.42;;;2.22;;
10299;SDS011;5195;48.562;9.192;2023-03-17T15:57:14;3.60;;;3.10;;
10299;SDS011;5195;48.562;9.192;2023-03-17T15:59:40;2.07;;;1.97;;
10299;SDS011;5195;48.562;9.192;2023-03-17T16:04:59;4.10;;;1.70;;
10299;SDS011;5195;48.562;9.192;2023-03-17T16:07:24;1.80;;;1.60;;
10299;SDS011;5195;48.562;9.192;2023-03-17T16:09:50;2.00;;;1.80;;
10299;SDS011;5195;48.562;9.192;2023-03-17T16:12:16;2.35;;;1.75;;
10299;SDS011;5195;48.562;9.192;2023-03-17T16:14:41;3.43;;;1.53;;
10299;SDS011;5195;48.562;9.192;2023-03-17T16:17:19;1.70;;;1.60;;
10299;SDS011;5195;48.562;9.192;2023-03-17T16:19:44;2.12;;;1.90;;
10299;SDS011;5195;48.562;9.192;2023-03-17T16:23:03;3.00;;;2.30;;
10299;SDS011;5195;48.562;9.192;2023-03-17T16:24:55;3.83;;;1.80;;
10299;SDS011;5195;48.562;9.192;2023-03-17T16:27:21;2.40;;;1.90;;
10299;SDS011;5195;48.562;9.192;2023-03-17T16:29:48;2.23;;;2.03;;
10299;SDS011;5195;48.562;9.192;2023-03-17T16:32:14;2.60;;;1.80;;
10299;SDS011;5195;48.562;9.192;2023-03-17T16:34:39;1.90;;;1.80;;
10299;SDS011;5195;48.562;9.192;2023-03-17T16:37:07;2.53;;;2.10;;
10299;SDS011;5195;48.562;9.192;2023-03-17T16:39:30;2.83;;;2.35;;
10299;SDS011;5195;48.562;9.192;2023-03-17T16:41:56;2.60;;;2.30;;
10299;SDS011;5195;48.562;9.192;2023-03-17T16:44:22;3.43;;;2.47;;
10299;SDS011;5195;48.562;9.192;2023-03-17T16:46:48;2.80;;;2.30;;
10299;SDS011;5195;48.562;9.192;2023-03-17T16:49:14;2.43;;;2.20;;